sensor_id;sensor_type;location;lat;lon;timestamp;P1;durP1;ratioP1;P2;durP2;ratioP2
7029;SDS011;3556;53.500;10.176;2023-02-10T00:03:41;61.10;;;26.17;;
7029;SDS011;3556;53.500;10.176;2023-02-10T00:06:07;81.70;;;27.40;;
7029;SDS011;3556;53.500;10.176;2023-02-10T00:08:34;73.23;;;27.47;;
7029;SDS011;3556;53.500;10.176;2023-02-10T00:11:01;69.03;;;26.93;;
7029;SDS011;3556;53.500;10.176;2023-02-10T00:13:28;65.97;;;26.57;;
7029;SDS011;3556;53.500;10.176;2023-02-10T00:15:56;68.00;;;27.53;;
7029;SDS011;3556;53.500;10.176;2023-02-10T00:18:22;76.40;;;26.97;;
7029;SDS011;3556;53.500;10.176;2023-02-10T00:20:48;69.00;;;27.00;;
7029;SDS011;3556;53.500;10.176;2023-02-10T00:23:14;62.20;;;26.70;;
7029;SDS011;3556;53.500;10.176;2023-02-10T00:25:40;76.13;;;26.43;;
7029;SDS011;3556;53.500;10.176;2023-02-10T00:28:05;63.37;;;26.70;;
7029;SDS011;3556;53.500;10.176;2023-02-10T00:30:32;67.90;;;26.30;;
7029;SDS011;3556;53.500;10.176;2023-02-10T00:32:57;85.07;;;28.70;;
7029;SDS011;3556;53.500;10.176;2023-02-10T00:35:23;62.70;;;26.47;;
7029;SDS011;3556;53.500;10.176;2023-02-10T00:37:49;61.40;;;26.00;;
7029;SDS011;3556;53.500;10.176;2023-02-10T00:40:15;69.47;;;26.00;;
7029;SDS011;3556;53.500;10.176;2023-02-10T00:42:41;66.47;;;25.40;;
7029;SDS011;3556;53.500;10.176;2023-02-10T00:45:06;64.23;;;25.00;;
7029;SDS011;3556;53.500;10.176;2023-02-10T00:47:33;63.13;;;25.87;;
7029;SDS011;3556;53.500;10.176;2023-02-10T00:49:58;64.30;;;25.87;;
7029;SDS011;3556;53.500;10.176;2023-02-10T00:52:24;67.27;;;25.13;;
7029;SDS011;3556;53.500;10.176;2023-02-10T00:54:50;70.40;;;26.20;;
7029;SDS011;3556;53.500;10.176;2023-02-10T00:57:16;67.50;;;24.37;;
7029;SDS011;3556;53.500;10.176;2023-02-10T00:59:42;64.80;;;24.37;;
7029;SDS011;3556;53.500;10.176;2023-02-10T01:02:07;68.83;;;24.80;;
7029;SDS011;3556;53.500;10.176;2023-02-10T01:04:33;74.43;;;24.87;;
7029;SDS011;3556;53.500;10.176;2023-02-10T01:06:58;62.87;;;24.40;;
7029;SDS011;3556;53.500;10.176;2023-02-10T01:09:24;66.90;;;24.33;;
7029;SDS011;3556;53.500;10.176;2023-02-10T01:11:50;72.50;;;25.43;;
7029;SDS011;3556;53.500;10.176;2023-02-10T01:14:16;63.03;;;24.00;;
7029;SDS011;3556;53.500;10.176;2023-02-10T01:16:41;62.00;;;23.87;;
7029;SDS011;3556;53.500;10.176;2023-02-10T01:19:07;63.67;;;24.03;;
7029;SDS011;3556;53.500;10.176;2023-02-10T01:21:33;60.60;;;23.73;;
7029;SDS011;3556;53.500;10.176;2023-02-10T01:24:01;68.27;;;24.97;;
7029;SDS011;3556;53.500;10.176;2023-02-10T01:26:28;62.20;;;24.70;;
7029;SDS011;3556;53.500;10.176;2023-02-10T01:28:53;64.87;;;25.80;;
7029;SDS011;3556;53.500;10.176;2023-02-10T01:31:19;62.33;;;24.67;;
7029;SDS011;3556;53.500;10.176;2023-02-10T01:33:45;61.13;;;24.70;;
7029;SDS011;3556;53.500;10.176;2023-02-10T01:36:15;62.67;;;24.90;;
7029;SDS011;3556;53.500;10.176;2023-02-10T01:38:43;67.43;;;25.37;;
7029;SDS011;3556;53.500;10.176;2023-02-10T01:41:10;62.07;;;24.90;;
7029;SDS011;3556;53.500;10.176;2023-02-10T01:46:25;54.20;;;23.17;;
7029;SDS011;3556;53.500;10.176;2023-02-10T01:48:55;56.67;;;24.40;;
7029;SDS011;3556;53.500;10.176;2023-02-10T01:51:25;53.43;;;22.30;;
7029;SDS011;3556;53.500;10.176;2023-02-10T01:54:06;59.60;;;24.00;;
7029;SDS011;3556;53.500;10.176;2023-02-10T01:56:37;68.10;;;24.03;;
7029;SDS011;3556;53.500;10.176;2023-02-10T01:59:03;61.27;;;24.87;;
7029;SDS011;3556;53.500;10.176;2023-02-10T02:01:29;67.20;;;23.93;;
7029;SDS011;3556;53.500;10.176;2023-02-10T02:03:55;56.60;;;23.07;;
7029;SDS011;3556;53.500;10.176;2023-02-10T02:06:21;53.20;;;24.03;;
7029;SDS011;3556;53.500;10.176;2023-02-10T02:08:47;71.53;;;23.80;;
7029;SDS011;3556;53.500;10.176;2023-02-10T02:32:39;59.40;;;21.30;;
7029;SDS011;3556;53.500;10.176;2023-02-10T02:35:31;53.10;;;21.53;;
7029;SDS011;3556;53.500;10.176;2023-02-10T02:38:07;48.70;;;20.03;;
7029;SDS011;3556;53.500;10.176;2023-02-10T02:40:33;55.67;;;21.90;;
7029;SDS011;3556;53.500;10.176;2023-02-10T02:42:59;57.13;;;21.77;;
7029;SDS011;3556;53.500;10.176;2023-02-10T02:45:34;51.23;;;21.20;;
7029;SDS011;3556;53.500;10.176;2023-02-10T02:48:14;56.20;;;20.80;;
7029;SDS011;3556;53.500;10.176;2023-02-10T02:53:55;49.53;;;19.63;;
7029;SDS011;3556;53.500;10.176;2023-02-10T03:01:49;61.70;;;20.00;;
7029;SDS011;3556;53.500;10.176;2023-02-10T03:04:25;52.77;;;20.23;;
7029;SDS011;3556;53.500;10.176;2023-02-10T03:06:53;56.27;;;19.90;;
7029;SDS011;3556;53.500;10.176;2023-02-10T03:09:19;59.30;;;21.33;;
7029;SDS011;3556;53.500;10.176;2023-02-10T03:11:45;54.00;;;21.30;;
7029;SDS011;3556;53.500;10.176;2023-02-10T03:14:11;60.37;;;20.77;;
7029;SDS011;3556;53.500;10.176;2023-02-10T03:16:36;56.80;;;22.40;;
7029;SDS011;3556;53.500;10.176;2023-02-10T03:19:02;53.13;;;21.90;;
7029;SDS011;3556;53.500;10.176;2023-02-10T03:21:28;60.97;;;22.37;;
7029;SDS011;3556;53.500;10.176;2023-02-10T03:23:53;68.10;;;22.60;;
7029;SDS011;3556;53.500;10.176;2023-02-10T03:26:19;71.97;;;22.80;;
7029;SDS011;3556;53.500;10.176;2023-02-10T03:28:44;53.93;;;22.13;;
7029;SDS011;3556;53.500;10.176;2023-02-10T03:31:10;46.40;;;20.77;;
7029;SDS011;3556;53.500;10.176;2023-02-10T03:33:36;51.80;;;21.67;;
7029;SDS011;3556;53.500;10.176;2023-02-10T03:36:02;52.33;;;23.00;;
7029;SDS011;3556;53.500;10.176;2023-02-10T03:38:29;60.07;;;23.70;;
7029;SDS011;3556;53.500;10.176;2023-02-10T03:40:54;58.20;;;23.80;;
7029;SDS011;3556;53.500;10.176;2023-02-10T03:43:20;60.07;;;23.90;;
7029;SDS011;3556;53.500;10.176;2023-02-10T03:45:47;63.27;;;23.67;;
7029;SDS011;3556;53.500;10.176;2023-02-10T03:48:13;67.97;;;22.80;;
7029;SDS011;3556;53.500;10.176;2023-02-10T03:50:40;68.53;;;24.33;;
7029;SDS011;3556;53.500;10.176;2023-02-10T03:53:06;53.73;;;24.43;;
7029;SDS011;3556;53.500;10.176;2023-02-10T03:55:32;55.30;;;24.00;;
7029;SDS011;3556;53.500;10.176;2023-02-10T03:57:59;61.07;;;24.47;;
7029;SDS011;3556;53.500;10.176;2023-02-10T04:00:27;63.20;;;24.50;;
7029;SDS011;3556;53.500;10.176;2023-02-10T04:02:54;63.20;;;25.80;;
7029;SDS011;3556;53.500;10.176;2023-02-10T04:05:19;63.63;;;25.60;;
7029;SDS011;3556;53.500;10.176;2023-02-10T04:07:45;55.53;;;24.43;;
7029;SDS011;3556;53.500;10.176;2023-02-10T04:10:11;60.13;;;26.00;;
7029;SDS011;3556;53.500;10.176;2023-02-10T04:12:37;64.17;;;25.23;;
7029;SDS011;3556;53.500;10.176;2023-02-10T04:15:04;64.27;;;25.03;;
7029;SDS011;3556;53.500;10.176;2023-02-10T04:17:30;73.43;;;26.77;;
7029;SDS011;3556;53.500;10.176;2023-02-10T04:19:56;64.60;;;26.63;;
7029;SDS011;3556;53.500;10.176;2023-02-10T04:22:22;67.00;;;27.00;;
7029;SDS011;3556;53.500;10.176;2023-02-10T04:24:48;81.07;;;28.83;;
7029;SDS011;3556;53.500;10.176;2023-02-10T04:27:13;80.50;;;29.57;;
7029;SDS011;3556;53.500;10.176;2023-02-10T04:29:39;74.27;;;29.63;;
7029;SDS011;3556;53.500;10.176;2023-02-10T04:32:06;61.80;;;26.63;;
7029;SDS011;3556;53.500;10.176;2023-02-10T04:34:32;80.07;;;31.37;;
7029;SDS011;3556;53.500;10.176;2023-02-10T04:36:58;88.80;;;31.50;;
7029;SDS011;3556;53.500;10.176;2023-02-10T04:39:24;74.83;;;30.40;;
7029;SDS011;3556;53.500;10.176;2023-02-10T04:41:49;78.17;;;29.67;;
7029;SDS011;3556;53.500;10.176;2023-02-10T04:44:15;74.60;;;28.30;;
7029;SDS011;3556;53.500;10.176;2023-02-10T04:46:40;72.63;;;28.87;;
7029;SDS011;3556;53.500;10.176;2023-02-10T04:49:06;80.00;;;29.70;;
7029;SDS011;3556;53.500;10.176;2023-02-10T04:51:31;70.60;;;30.07;;
7029;SDS011;3556;53.500;10.176;2023-02-10T04:53:57;70.03;;;29.10;;
7029;SDS011;3556;53.500;10.176;2023-02-10T04:56:23;64.97;;;28.63;;
7029;SDS011;3556;53.500;10.176;2023-02-10T04:58:48;63.50;;;28.60;;
7029;SDS011;3556;53.500;10.176;2023-02-10T05:01:14;72.67;;;29.30;;
7029;SDS011;3556;53.500;10.176;2023-02-10T05:03:40;67.77;;;28.87;;
7029;SDS011;3556;53.500;10.176;2023-02-10T05:06:10;64.63;;;28.40;;
7029;SDS011;3556;53.500;10.176;2023-02-10T05:08:37;68.03;;;27.10;;
7029;SDS011;3556;53.500;10.176;2023-02-10T05:11:07;59.90;;;26.83;;
7029;SDS011;3556;53.500;10.176;2023-02-10T05:13:35;64.03;;;27.10;;
7029;SDS011;3556;53.500;10.176;2023-02-10T05:16:01;71.37;;;27.70;;
7029;SDS011;3556;53.500;10.176;2023-02-10T05:18:28;70.17;;;27.63;;
7029;SDS011;3556;53.500;10.176;2023-02-10T05:20:55;65.83;;;27.80;;
7029;SDS011;3556;53.500;10.176;2023-02-10T05:23:21;66.53;;;26.60;;
7029;SDS011;3556;53.500;10.176;2023-02-10T05:25:46;66.20;;;27.30;;
7029;SDS011;3556;53.500;10.176;2023-02-10T05:28:12;67.70;;;25.07;;
7029;SDS011;3556;53.500;10.176;2023-02-10T05:30:37;63.47;;;27.67;;
7029;SDS011;3556;53.500;10.176;2023-02-10T05:33:03;74.10;;;26.93;;
7029;SDS011;3556;53.500;10.176;2023-02-10T05:35:29;68.27;;;26.70;;
7029;SDS011;3556;53.500;10.176;2023-02-10T05:37:54;76.97;;;27.43;;
7029;SDS011;3556;53.500;10.176;2023-02-10T05:40:20;69.20;;;27.13;;
7029;SDS011;3556;53.500;10.176;2023-02-10T05:42:45;69.03;;;26.60;;
7029;SDS011;3556;53.500;10.176;2023-02-10T05:45:11;63.97;;;27.07;;
7029;SDS011;3556;53.500;10.176;2023-02-10T05:47:37;61.03;;;27.80;;
7029;SDS011;3556;53.500;10.176;2023-02-10T05:50:02;66.40;;;27.70;;
7029;SDS011;3556;53.500;10.176;2023-02-10T05:52:28;71.10;;;27.40;;
7029;SDS011;3556;53.500;10.176;2023-02-10T05:54:54;65.00;;;27.20;;
7029;SDS011;3556;53.500;10.176;2023-02-10T05:57:19;66.90;;;28.40;;
7029;SDS011;3556;53.500;10.176;2023-02-10T05:59:45;68.13;;;27.83;;
7029;SDS011;3556;53.500;10.176;2023-02-10T06:02:10;74.60;;;26.77;;
7029;SDS011;3556;53.500;10.176;2023-02-10T06:04:36;53.50;;;25.97;;
7029;SDS011;3556;53.500;10.176;2023-02-10T06:07:02;64.43;;;28.03;;
7029;SDS011;3556;53.500;10.176;2023-02-10T06:09:27;66.07;;;28.10;;
7029;SDS011;3556;53.500;10.176;2023-02-10T06:11:53;64.90;;;27.20;;
7029;SDS011;3556;53.500;10.176;2023-02-10T06:14:19;68.70;;;27.90;;
7029;SDS011;3556;53.500;10.176;2023-02-10T06:16:45;63.30;;;27.73;;
7029;SDS011;3556;53.500;10.176;2023-02-10T06:19:11;64.70;;;28.23;;
7029;SDS011;3556;53.500;10.176;2023-02-10T06:21:36;72.37;;;29.50;;
7029;SDS011;3556;53.500;10.176;2023-02-10T06:24:02;71.63;;;27.93;;
7029;SDS011;3556;53.500;10.176;2023-02-10T06:26:28;69.53;;;27.87;;
7029;SDS011;3556;53.500;10.176;2023-02-10T06:28:54;73.70;;;27.70;;
7029;SDS011;3556;53.500;10.176;2023-02-10T06:31:20;65.50;;;27.93;;
7029;SDS011;3556;53.500;10.176;2023-02-10T06:33:46;66.20;;;29.30;;
7029;SDS011;3556;53.500;10.176;2023-02-10T06:36:12;67.37;;;27.80;;
7029;SDS011;3556;53.500;10.176;2023-02-10T06:38:38;58.00;;;28.47;;
7029;SDS011;3556;53.500;10.176;2023-02-10T06:41:03;67.40;;;27.87;;
7029;SDS011;3556;53.500;10.176;2023-02-10T06:43:29;72.90;;;27.17;;
7029;SDS011;3556;53.500;10.176;2023-02-10T06:45:55;69.13;;;28.80;;
7029;SDS011;3556;53.500;10.176;2023-02-10T06:48:21;72.63;;;28.40;;
7029;SDS011;3556;53.500;10.176;2023-02-10T06:50:47;62.47;;;28.37;;
7029;SDS011;3556;53.500;10.176;2023-02-10T06:53:12;62.77;;;27.67;;
7029;SDS011;3556;53.500;10.176;2023-02-10T06:55:38;70.50;;;27.70;;
7029;SDS011;3556;53.500;10.176;2023-02-10T06:58:03;77.23;;;28.17;;
7029;SDS011;3556;53.500;10.176;2023-02-10T07:00:29;109.07;;;37.40;;
7029;SDS011;3556;53.500;10.176;2023-02-10T07:02:57;101.43;;;32.70;;
7029;SDS011;3556;53.500;10.176;2023-02-10T07:05:24;89.97;;;30.13;;
7029;SDS011;3556;53.500;10.176;2023-02-10T07:07:50;74.53;;;30.17;;
7029;SDS011;3556;53.500;10.176;2023-02-10T07:10:16;77.90;;;30.33;;
7029;SDS011;3556;53.500;10.176;2023-02-10T07:12:43;83.83;;;30.20;;
7029;SDS011;3556;53.500;10.176;2023-02-10T07:15:11;86.13;;;30.17;;
7029;SDS011;3556;53.500;10.176;2023-02-10T07:17:37;98.37;;;29.90;;
7029;SDS011;3556;53.500;10.176;2023-02-10T07:20:03;80.40;;;30.67;;
7029;SDS011;3556;53.500;10.176;2023-02-10T07:22:30;85.97;;;30.70;;
7029;SDS011;3556;53.500;10.176;2023-02-10T07:24:56;92.67;;;30.93;;
7029;SDS011;3556;53.500;10.176;2023-02-10T07:27:22;91.97;;;29.83;;
7029;SDS011;3556;53.500;10.176;2023-02-10T07:29:48;83.60;;;30.60;;
7029;SDS011;3556;53.500;10.176;2023-02-10T07:32:14;74.07;;;29.90;;
7029;SDS011;3556;53.500;10.176;2023-02-10T07:34:40;94.23;;;31.03;;
7029;SDS011;3556;53.500;10.176;2023-02-10T07:37:06;74.30;;;29.17;;
7029;SDS011;3556;53.500;10.176;2023-02-10T07:39:32;99.40;;;33.43;;
7029;SDS011;3556;53.500;10.176;2023-02-10T07:41:58;85.67;;;30.90;;
7029;SDS011;3556;53.500;10.176;2023-02-10T07:44:23;93.87;;;30.40;;
7029;SDS011;3556;53.500;10.176;2023-02-10T07:46:52;93.47;;;31.73;;
7029;SDS011;3556;53.500;10.176;2023-02-10T07:49:18;89.93;;;31.60;;
7029;SDS011;3556;53.500;10.176;2023-02-10T07:51:43;84.93;;;31.37;;
7029;SDS011;3556;53.500;10.176;2023-02-10T07:54:10;78.60;;;31.40;;
7029;SDS011;3556;53.500;10.176;2023-02-10T07:56:36;87.13;;;31.57;;
7029;SDS011;3556;53.500;10.176;2023-02-10T07:59:01;79.60;;;30.37;;
7029;SDS011;3556;53.500;10.176;2023-02-10T08:01:27;84.33;;;31.37;;
7029;SDS011;3556;53.500;10.176;2023-02-10T08:03:53;83.30;;;32.60;;
7029;SDS011;3556;53.500;10.176;2023-02-10T08:06:20;86.03;;;31.70;;
7029;SDS011;3556;53.500;10.176;2023-02-10T08:08:46;87.77;;;32.63;;
7029;SDS011;3556;53.500;10.176;2023-02-10T08:11:12;86.13;;;31.60;;
7029;SDS011;3556;53.500;10.176;2023-02-10T08:13:37;86.40;;;32.00;;
7029;SDS011;3556;53.500;10.176;2023-02-10T08:16:04;79.83;;;31.67;;
7029;SDS011;3556;53.500;10.176;2023-02-10T08:18:32;92.63;;;32.67;;
7029;SDS011;3556;53.500;10.176;2023-02-10T08:20:59;97.23;;;31.53;;
7029;SDS011;3556;53.500;10.176;2023-02-10T08:23:25;90.37;;;32.70;;
7029;SDS011;3556;53.500;10.176;2023-02-10T08:25:51;74.20;;;30.20;;
7029;SDS011;3556;53.500;10.176;2023-02-10T08:28:17;93.33;;;32.77;;
7029;SDS011;3556;53.500;10.176;2023-02-10T08:30:43;75.33;;;31.90;;
7029;SDS011;3556;53.500;10.176;2023-02-10T08:33:08;80.60;;;31.77;;
7029;SDS011;3556;53.500;10.176;2023-02-10T08:35:35;75.90;;;31.47;;
7029;SDS011;3556;53.500;10.176;2023-02-10T08:38:02;83.07;;;30.87;;
7029;SDS011;3556;53.500;10.176;2023-02-10T08:40:28;75.43;;;31.30;;
7029;SDS011;3556;53.500;10.176;2023-02-10T08:42:54;70.97;;;29.63;;
7029;SDS011;3556;53.500;10.176;2023-02-10T08:45:19;76.47;;;29.30;;
7029;SDS011;3556;53.500;10.176;2023-02-10T08:47:45;84.73;;;28.70;;
7029;SDS011;3556;53.500;10.176;2023-02-10T08:50:11;76.33;;;29.50;;
7029;SDS011;3556;53.500;10.176;2023-02-10T08:52:36;74.47;;;29.20;;
7029;SDS011;3556;53.500;10.176;2023-02-10T08:55:02;64.23;;;28.97;;
7029;SDS011;3556;53.500;10.176;2023-02-10T08:57:28;80.67;;;28.23;;
7029;SDS011;3556;53.500;10.176;2023-02-10T08:59:53;94.93;;;30.93;;
7029;SDS011;3556;53.500;10.176;2023-02-10T09:02:19;69.77;;;28.30;;
7029;SDS011;3556;53.500;10.176;2023-02-10T09:04:45;88.63;;;30.03;;
7029;SDS011;3556;53.500;10.176;2023-02-10T09:07:10;79.30;;;28.67;;
7029;SDS011;3556;53.500;10.176;2023-02-10T09:09:38;69.90;;;27.97;;
7029;SDS011;3556;53.500;10.176;2023-02-10T09:12:06;73.80;;;27.07;;
7029;SDS011;3556;53.500;10.176;2023-02-10T09:14:32;74.33;;;27.47;;
7029;SDS011;3556;53.500;10.176;2023-02-10T09:16:58;71.93;;;28.13;;
7029;SDS011;3556;53.500;10.176;2023-02-10T09:19:23;66.60;;;25.90;;
7029;SDS011;3556;53.500;10.176;2023-02-10T09:21:50;65.17;;;27.97;;
7029;SDS011;3556;53.500;10.176;2023-02-10T09:24:16;79.83;;;29.57;;
7029;SDS011;3556;53.500;10.176;2023-02-10T09:26:42;68.80;;;27.10;;
7029;SDS011;3556;53.500;10.176;2023-02-10T09:29:09;86.33;;;28.90;;
7029;SDS011;3556;53.500;10.176;2023-02-10T09:31:36;78.80;;;28.60;;
7029;SDS011;3556;53.500;10.176;2023-02-10T09:34:02;70.80;;;28.20;;
7029;SDS011;3556;53.500;10.176;2023-02-10T09:36:28;74.70;;;29.47;;
7029;SDS011;3556;53.500;10.176;2023-02-10T09:38:54;71.53;;;28.10;;
7029;SDS011;3556;53.500;10.176;2023-02-10T09:54:41;92.60;;;31.67;;
7029;SDS011;3556;53.500;10.176;2023-02-10T09:57:11;79.43;;;32.30;;
7029;SDS011;3556;53.500;10.176;2023-02-10T09:59:39;78.83;;;29.87;;
7029;SDS011;3556;53.500;10.176;2023-02-10T10:02:15;90.87;;;29.50;;
7029;SDS011;3556;53.500;10.176;2023-02-10T10:04:46;84.83;;;29.90;;
7029;SDS011;3556;53.500;10.176;2023-02-10T10:07:23;75.90;;;28.50;;
7029;SDS011;3556;53.500;10.176;2023-02-10T10:10:37;75.53;;;28.77;;
7029;SDS011;3556;53.500;10.176;2023-02-10T10:12:49;73.90;;;27.70;;
7029;SDS011;3556;53.500;10.176;2023-02-10T10:15:15;77.43;;;29.43;;
7029;SDS011;3556;53.500;10.176;2023-02-10T10:31:48;66.60;;;27.57;;
7029;SDS011;3556;53.500;10.176;2023-02-10T10:34:21;67.57;;;28.70;;
7029;SDS011;3556;53.500;10.176;2023-02-10T10:36:51;95.23;;;29.60;;
7029;SDS011;3556;53.500;10.176;2023-02-10T10:39:36;86.20;;;30.47;;
7029;SDS011;3556;53.500;10.176;2023-02-10T10:42:16;78.90;;;31.13;;
7029;SDS011;3556;53.500;10.176;2023-02-10T10:45:06;75.80;;;29.07;;
7029;SDS011;3556;53.500;10.176;2023-02-10T10:47:43;82.67;;;31.33;;
7029;SDS011;3556;53.500;10.176;2023-02-10T10:50:17;78.37;;;30.77;;
7029;SDS011;3556;53.500;10.176;2023-02-10T10:52:46;73.40;;;30.07;;
7029;SDS011;3556;53.500;10.176;2023-02-10T10:55:21;67.17;;;29.80;;
7029;SDS011;3556;53.500;10.176;2023-02-10T10:58:01;63.77;;;29.30;;
7029;SDS011;3556;53.500;10.176;2023-02-10T11:00:33;89.23;;;32.10;;
7029;SDS011;3556;53.500;10.176;2023-02-10T11:03:00;71.77;;;30.87;;
7029;SDS011;3556;53.500;10.176;2023-02-10T11:05:32;77.53;;;30.43;;
7029;SDS011;3556;53.500;10.176;2023-02-10T11:08:00;80.03;;;30.00;;
7029;SDS011;3556;53.500;10.176;2023-02-10T11:10:35;71.07;;;31.00;;
7029;SDS011;3556;53.500;10.176;2023-02-10T11:13:02;88.23;;;30.87;;
7029;SDS011;3556;53.500;10.176;2023-02-10T11:15:34;77.83;;;31.20;;
7029;SDS011;3556;53.500;10.176;2023-02-10T11:18:04;83.00;;;30.90;;
7029;SDS011;3556;53.500;10.176;2023-02-10T11:20:33;71.07;;;30.13;;
7029;SDS011;3556;53.500;10.176;2023-02-10T11:23:10;79.30;;;31.17;;
7029;SDS011;3556;53.500;10.176;2023-02-10T11:25:38;81.17;;;30.60;;
7029;SDS011;3556;53.500;10.176;2023-02-10T11:28:05;79.27;;;30.80;;
7029;SDS011;3556;53.500;10.176;2023-02-10T11:30:33;66.50;;;29.40;;
7029;SDS011;3556;53.500;10.176;2023-02-10T11:33:01;76.37;;;30.07;;
7029;SDS011;3556;53.500;10.176;2023-02-10T11:35:29;64.83;;;27.30;;
7029;SDS011;3556;53.500;10.176;2023-02-10T11:38:00;62.53;;;28.33;;
7029;SDS011;3556;53.500;10.176;2023-02-10T11:40:30;58.33;;;27.67;;
7029;SDS011;3556;53.500;10.176;2023-02-10T11:43:11;61.50;;;27.00;;
7029;SDS011;3556;53.500;10.176;2023-02-10T11:45:49;52.97;;;27.43;;
7029;SDS011;3556;53.500;10.176;2023-02-10T11:48:24;62.10;;;27.00;;
7029;SDS011;3556;53.500;10.176;2023-02-10T11:53:49;51.57;;;23.10;;
7029;SDS011;3556;53.500;10.176;2023-02-10T11:56:18;49.63;;;22.40;;
7029;SDS011;3556;53.500;10.176;2023-02-10T11:58:58;43.20;;;21.90;;
7029;SDS011;3556;53.500;10.176;2023-02-10T12:01:37;46.67;;;22.17;;
7029;SDS011;3556;53.500;10.176;2023-02-10T12:04:14;43.60;;;20.20;;
7029;SDS011;3556;53.500;10.176;2023-02-10T12:07:10;42.40;;;20.20;;
7029;SDS011;3556;53.500;10.176;2023-02-10T12:09:44;44.00;;;19.03;;
7029;SDS011;3556;53.500;10.176;2023-02-10T12:23:53;35.70;;;16.10;;
7029;SDS011;3556;53.500;10.176;2023-02-10T12:31:57;30.33;;;15.00;;
7029;SDS011;3556;53.500;10.176;2023-02-10T12:39:36;27.03;;;13.80;;
7029;SDS011;3556;53.500;10.176;2023-02-10T12:42:13;26.07;;;13.90;;
7029;SDS011;3556;53.500;10.176;2023-02-10T12:44:59;36.53;;;15.97;;
7029;SDS011;3556;53.500;10.176;2023-02-10T12:50:04;29.53;;;13.23;;
7029;SDS011;3556;53.500;10.176;2023-02-10T12:52:51;31.07;;;13.47;;
7029;SDS011;3556;53.500;10.176;2023-02-10T12:55:24;29.60;;;14.53;;
7029;SDS011;3556;53.500;10.176;2023-02-10T12:57:57;21.07;;;12.07;;
7029;SDS011;3556;53.500;10.176;2023-02-10T13:00:28;29.37;;;12.10;;
7029;SDS011;3556;53.500;10.176;2023-02-10T13:03:00;27.83;;;12.87;;
7029;SDS011;3556;53.500;10.176;2023-02-10T13:05:34;32.53;;;12.07;;
7029;SDS011;3556;53.500;10.176;2023-02-10T13:08:05;23.50;;;12.07;;
7029;SDS011;3556;53.500;10.176;2023-02-10T13:10:42;29.90;;;12.77;;
7029;SDS011;3556;53.500;10.176;2023-02-10T13:13:22;29.80;;;12.47;;
7029;SDS011;3556;53.500;10.176;2023-02-10T13:21:34;26.37;;;12.03;;
7029;SDS011;3556;53.500;10.176;2023-02-10T13:24:19;26.83;;;11.33;;
7029;SDS011;3556;53.500;10.176;2023-02-10T13:29:54;23.40;;;12.77;;
7029;SDS011;3556;53.500;10.176;2023-02-10T13:34:56;28.77;;;13.27;;
7029;SDS011;3556;53.500;10.176;2023-02-10T13:39:52;26.00;;;12.97;;
7029;SDS011;3556;53.500;10.176;2023-02-10T13:42:22;25.43;;;13.43;;
7029;SDS011;3556;53.500;10.176;2023-02-10T13:47:43;27.13;;;12.83;;
7029;SDS011;3556;53.500;10.176;2023-02-10T13:50:25;22.20;;;13.23;;
7029;SDS011;3556;53.500;10.176;2023-02-10T13:56:51;30.87;;;14.23;;
7029;SDS011;3556;53.500;10.176;2023-02-10T14:01:30;28.83;;;14.17;;
7029;SDS011;3556;53.500;10.176;2023-02-10T14:04:01;29.23;;;13.70;;
7029;SDS011;3556;53.500;10.176;2023-02-10T14:06:35;31.83;;;14.67;;
7029;SDS011;3556;53.500;10.176;2023-02-10T14:09:05;26.77;;;14.27;;
7029;SDS011;3556;53.500;10.176;2023-02-10T14:11:43;26.97;;;13.50;;
7029;SDS011;3556;53.500;10.176;2023-02-10T14:17:19;28.23;;;14.23;;
7029;SDS011;3556;53.500;10.176;2023-02-10T14:19:55;23.17;;;13.30;;
7029;SDS011;3556;53.500;10.176;2023-02-10T14:22:32;32.27;;;14.50;;
7029;SDS011;3556;53.500;10.176;2023-02-10T14:25:02;30.37;;;14.83;;
7029;SDS011;3556;53.500;10.176;2023-02-10T14:27:39;29.97;;;14.37;;
7029;SDS011;3556;53.500;10.176;2023-02-10T14:30:12;24.37;;;13.60;;
7029;SDS011;3556;53.500;10.176;2023-02-10T14:32:45;34.73;;;14.47;;
7029;SDS011;3556;53.500;10.176;2023-02-10T14:35:15;26.23;;;14.40;;
7029;SDS011;3556;53.500;10.176;2023-02-10T14:37:49;30.83;;;15.20;;
7029;SDS011;3556;53.500;10.176;2023-02-10T14:40:22;33.43;;;15.07;;
7029;SDS011;3556;53.500;10.176;2023-02-10T14:42:49;28.80;;;15.17;;
7029;SDS011;3556;53.500;10.176;2023-02-10T14:45:18;31.80;;;14.70;;
7029;SDS011;3556;53.500;10.176;2023-02-10T14:47:49;25.77;;;14.87;;
7029;SDS011;3556;53.500;10.176;2023-02-10T14:50:26;33.97;;;14.93;;
7029;SDS011;3556;53.500;10.176;2023-02-10T14:52:54;27.47;;;14.57;;
7029;SDS011;3556;53.500;10.176;2023-02-10T14:55:21;38.80;;;14.70;;
7029;SDS011;3556;53.500;10.176;2023-02-10T14:57:47;35.27;;;15.53;;
7029;SDS011;3556;53.500;10.176;2023-02-10T15:00:13;27.23;;;14.60;;
7029;SDS011;3556;53.500;10.176;2023-02-10T15:02:39;32.37;;;15.00;;
7029;SDS011;3556;53.500;10.176;2023-02-10T15:05:07;26.13;;;14.60;;
7029;SDS011;3556;53.500;10.176;2023-02-10T15:07:41;26.40;;;14.33;;
7029;SDS011;3556;53.500;10.176;2023-02-10T15:12:44;25.00;;;13.47;;
7029;SDS011;3556;53.500;10.176;2023-02-10T15:18:00;33.87;;;15.20;;
7029;SDS011;3556;53.500;10.176;2023-02-10T15:20:35;31.10;;;15.73;;
7029;SDS011;3556;53.500;10.176;2023-02-10T15:25:30;28.70;;;14.93;;
7029;SDS011;3556;53.500;10.176;2023-02-10T15:30:41;46.83;;;16.50;;
7029;SDS011;3556;53.500;10.176;2023-02-10T15:35:55;33.70;;;15.63;;
7029;SDS011;3556;53.500;10.176;2023-02-10T15:43:57;34.03;;;15.37;;
7029;SDS011;3556;53.500;10.176;2023-02-10T15:46:23;32.60;;;15.10;;
7029;SDS011;3556;53.500;10.176;2023-02-10T15:48:50;27.97;;;14.70;;
7029;SDS011;3556;53.500;10.176;2023-02-10T15:51:23;30.67;;;14.57;;
7029;SDS011;3556;53.500;10.176;2023-02-10T15:53:51;31.70;;;15.67;;
7029;SDS011;3556;53.500;10.176;2023-02-10T15:56:20;41.47;;;17.20;;
7029;SDS011;3556;53.500;10.176;2023-02-10T15:58:50;28.70;;;15.70;;
7029;SDS011;3556;53.500;10.176;2023-02-10T16:01:16;32.07;;;16.00;;
7029;SDS011;3556;53.500;10.176;2023-02-10T16:03:42;34.73;;;17.00;;
7029;SDS011;3556;53.500;10.176;2023-02-10T16:06:14;31.37;;;15.53;;
7029;SDS011;3556;53.500;10.176;2023-02-10T16:08:42;33.53;;;16.90;;
7029;SDS011;3556;53.500;10.176;2023-02-10T16:11:11;40.30;;;18.10;;
7029;SDS011;3556;53.500;10.176;2023-02-10T16:13:37;33.57;;;16.60;;
7029;SDS011;3556;53.500;10.176;2023-02-10T16:16:03;33.60;;;17.53;;
7029;SDS011;3556;53.500;10.176;2023-02-10T16:18:36;34.07;;;16.80;;
7029;SDS011;3556;53.500;10.176;2023-02-10T16:21:01;33.67;;;17.67;;
7029;SDS011;3556;53.500;10.176;2023-02-10T16:23:28;35.33;;;18.40;;
7029;SDS011;3556;53.500;10.176;2023-02-10T16:25:55;43.03;;;18.87;;
7029;SDS011;3556;53.500;10.176;2023-02-10T16:28:20;35.30;;;18.20;;
7029;SDS011;3556;53.500;10.176;2023-02-10T16:30:46;53.43;;;19.83;;
7029;SDS011;3556;53.500;10.176;2023-02-10T16:33:12;40.87;;;18.63;;
7029;SDS011;3556;53.500;10.176;2023-02-10T16:35:39;44.30;;;20.33;;
7029;SDS011;3556;53.500;10.176;2023-02-10T16:38:05;53.17;;;20.00;;
7029;SDS011;3556;53.500;10.176;2023-02-10T16:40:33;45.03;;;20.80;;
7029;SDS011;3556;53.500;10.176;2023-02-10T16:43:00;42.97;;;20.63;;
7029;SDS011;3556;53.500;10.176;2023-02-10T16:45:27;34.97;;;20.73;;
7029;SDS011;3556;53.500;10.176;2023-02-10T16:47:54;46.20;;;20.90;;
7029;SDS011;3556;53.500;10.176;2023-02-10T16:52:57;42.50;;;20.00;;
7029;SDS011;3556;53.500;10.176;2023-02-10T16:55:23;44.63;;;20.47;;
7029;SDS011;3556;53.500;10.176;2023-02-10T16:57:49;53.10;;;21.77;;